sensor_id;sensor_type;location;lat;lon;timestamp;P1;P2;P0
47079;PMS5003;33067;49.296;14.470;2023-04-03T00:01:54;48;44;
47079;PMS5003;33067;49.296;14.470;2023-04-03T00:04:20;41;37;
47079;PMS5003;33067;49.296;14.470;2023-04-03T00:06:45;50;50;
47079;PMS5003;33067;49.296;14.470;2023-04-03T00:09:11;37;37;
47079;PMS5003;33067;49.296;14.470;2023-04-03T00:11:36;36;36;
47079;PMS5003;33067;49.296;14.470;2023-04-03T00:14:02;39;39;
47079;PMS5003;33067;49.296;14.470;2023-04-03T00:16:28;51;51;
47079;PMS5003;33067;49.296;14.470;2023-04-03T00:18:53;29;29;
47079;PMS5003;33067;49.296;14.470;2023-04-03T00:21:18;20;19;
47079;PMS5003;33067;49.296;14.470;2023-04-03T00:23:44;18;15;
47079;PMS5003;33067;49.296;14.470;2023-04-03T00:26:09;18;18;
47079;PMS5003;33067;49.296;14.470;2023-04-03T00:28:35;16;16;
47079;PMS5003;33067;49.296;14.470;2023-04-03T00:31:00;22;14;
47079;PMS5003;33067;49.296;14.470;2023-04-03T00:33:26;23;23;
47079;PMS5003;33067;49.296;14.470;2023-04-03T00:35:51;16;16;
47079;PMS5003;33067;49.296;14.470;2023-04-03T00:38:17;18;18;
47079;PMS5003;33067;49.296;14.470;2023-04-03T00:40:45;18;17;
47079;PMS5003;33067;49.296;14.470;2023-04-03T00:43:10;22;18;
47079;PMS5003;33067;49.296;14.470;2023-04-03T00:45:35;18;17;
47079;PMS5003;33067;49.296;14.470;2023-04-03T00:48:00;23;21;
47079;PMS5003;33067;49.296;14.470;2023-04-03T00:50:25;28;26;
47079;PMS5003;33067;49.296;14.470;2023-04-03T00:52:50;18;18;
47079;PMS5003;33067;49.296;14.470;2023-04-03T00:55:16;18;17;
47079;PMS5003;33067;49.296;14.470;2023-04-03T00:57:41;19;19;
47079;PMS5003;33067;49.296;14.470;2023-04-03T01:00:07;17;16;
47079;PMS5003;33067;49.296;14.470;2023-04-03T01:02:31;26;21;
47079;PMS5003;33067;49.296;14.470;2023-04-03T01:04:57;19;18;
47079;PMS5003;33067;49.296;14.470;2023-04-03T01:07:23;16;16;
47079;PMS5003;33067;49.296;14.470;2023-04-03T01:09:48;23;19;
47079;PMS5003;33067;49.296;14.470;2023-04-03T01:12:14;21;21;
47079;PMS5003;33067;49.296;14.470;2023-04-03T01:14:38;19;19;
47079;PMS5003;33067;49.296;14.470;2023-04-03T01:19:30;21;19;
47079;PMS5003;33067;49.296;14.470;2023-04-03T01:22:01;21;19;
47079;PMS5003;33067;49.296;14.470;2023-04-03T01:24:22;19;19;
47079;PMS5003;33067;49.296;14.470;2023-04-03T01:26:46;26;25;
47079;PMS5003;33067;49.296;14.470;2023-04-03T01:29:11;16;16;
47079;PMS5003;33067;49.296;14.470;2023-04-03T01:31:44;24;22;
47079;PMS5003;33067;49.296;14.470;2023-04-03T01:34:02;14;14;
47079;PMS5003;33067;49.296;14.470;2023-04-03T01:36:29;18;17;
47079;PMS5003;33067;49.296;14.470;2023-04-03T01:38:54;22;18;
47079;PMS5003;33067;49.296;14.470;2023-04-03T01:41:19;22;21;
47079;PMS5003;33067;49.296;14.470;2023-04-03T01:43:44;18;14;
47079;PMS5003;33067;49.296;14.470;2023-04-03T01:46:10;23;22;
47079;PMS5003;33067;49.296;14.470;2023-04-03T01:48:35;22;21;
47079;PMS5003;33067;49.296;14.470;2023-04-03T01:51:01;17;16;
47079;PMS5003;33067;49.296;14.470;2023-04-03T01:53:26;19;19;
47079;PMS5003;33067;49.296;14.470;2023-04-03T01:55:52;21;18;
47079;PMS5003;33067;49.296;14.470;2023-04-03T01:58:18;20;18;
47079;PMS5003;33067;49.296;14.470;2023-04-03T02:00:43;28;27;
47079;PMS5003;33067;49.296;14.470;2023-04-03T02:03:08;22;20;
47079;PMS5003;33067;49.296;14.470;2023-04-03T02:05:33;22;20;
47079;PMS5003;33067;49.296;14.470;2023-04-03T02:07:59;23;23;
47079;PMS5003;33067;49.296;14.470;2023-04-03T02:12:58;22;22;
47079;PMS5003;33067;49.296;14.470;2023-04-03T02:15:23;21;21;
47079;PMS5003;33067;49.296;14.470;2023-04-03T02:17:48;21;21;
47079;PMS5003;33067;49.296;14.470;2023-04-03T02:20:14;22;21;
47079;PMS5003;33067;49.296;14.470;2023-04-03T02:22:40;25;23;
47079;PMS5003;33067;49.296;14.470;2023-04-03T02:25:06;18;18;
47079;PMS5003;33067;49.296;14.470;2023-04-03T02:27:31;16;16;
47079;PMS5003;33067;49.296;14.470;2023-04-03T02:29:57;21;21;
47079;PMS5003;33067;49.296;14.470;2023-04-03T02:32:22;23;23;
47079;PMS5003;33067;49.296;14.470;2023-04-03T02:34:47;23;21;
47079;PMS5003;33067;49.296;14.470;2023-04-03T02:37:13;27;21;
47079;PMS5003;33067;49.296;14.470;2023-04-03T02:39:38;21;21;
47079;PMS5003;33067;49.296;14.470;2023-04-03T02:42:04;20;20;
47079;PMS5003;33067;49.296;14.470;2023-04-03T02:44:29;21;20;
47079;PMS5003;33067;49.296;14.470;2023-04-03T02:46:55;20;17;
47079;PMS5003;33067;49.296;14.470;2023-04-03T02:49:20;21;21;
47079;PMS5003;33067;49.296;14.470;2023-04-03T02:51:46;20;20;
47079;PMS5003;33067;49.296;14.470;2023-04-03T02:54:12;28;23;
47079;PMS5003;33067;49.296;14.470;2023-04-03T02:56:37;21;19;
47079;PMS5003;33067;49.296;14.470;2023-04-03T02:59:03;25;23;
47079;PMS5003;33067;49.296;14.470;2023-04-03T03:01:28;23;22;
47079;PMS5003;33067;49.296;14.470;2023-04-03T03:03:54;22;22;
47079;PMS5003;33067;49.296;14.470;2023-04-03T03:06:19;20;17;
47079;PMS5003;33067;49.296;14.470;2023-04-03T03:08:45;24;22;
47079;PMS5003;33067;49.296;14.470;2023-04-03T03:11:10;22;21;
47079;PMS5003;33067;49.296;14.470;2023-04-03T03:13:36;23;21;
47079;PMS5003;33067;49.296;14.470;2023-04-03T03:16:01;21;19;
47079;PMS5003;33067;49.296;14.470;2023-04-03T03:18:27;29;29;
47079;PMS5003;33067;49.296;14.470;2023-04-03T03:20:52;22;22;
47079;PMS5003;33067;49.296;14.470;2023-04-03T03:23:17;21;21;
47079;PMS5003;33067;49.296;14.470;2023-04-03T03:25:43;19;17;
47079;PMS5003;33067;49.296;14.470;2023-04-03T03:28:09;18;18;
47079;PMS5003;33067;49.296;14.470;2023-04-03T03:30:34;25;22;
47079;PMS5003;33067;49.296;14.470;2023-04-03T03:33:00;21;21;
47079;PMS5003;33067;49.296;14.470;2023-04-03T03:35:26;22;20;
47079;PMS5003;33067;49.296;14.470;2023-04-03T03:37:51;18;18;
47079;PMS5003;33067;49.296;14.470;2023-04-03T03:40:17;26;24;
47079;PMS5003;33067;49.296;14.470;2023-04-03T03:42:42;22;21;
47079;PMS5003;33067;49.296;14.470;2023-04-03T03:45:08;23;23;
47079;PMS5003;33067;49.296;14.470;2023-04-03T03:47:33;27;25;
47079;PMS5003;33067;49.296;14.470;2023-04-03T03:49:58;22;22;
47079;PMS5003;33067;49.296;14.470;2023-04-03T03:52:24;27;26;
47079;PMS5003;33067;49.296;14.470;2023-04-03T03:54:49;26;23;
47079;PMS5003;33067;49.296;14.470;2023-04-03T03:57:15;22;22;
47079;PMS5003;33067;49.296;14.470;2023-04-03T03:59:40;22;22;
47079;PMS5003;33067;49.296;14.470;2023-04-03T04:02:06;26;22;
47079;PMS5003;33067;49.296;14.470;2023-04-03T04:04:31;27;22;
47079;PMS5003;33067;49.296;14.470;2023-04-03T04:06:56;27;26;
47079;PMS5003;33067;49.296;14.470;2023-04-03T04:09:22;26;25;
47079;PMS5003;33067;49.296;14.470;2023-04-03T04:11:47;29;27;
47079;PMS5003;33067;49.296;14.470;2023-04-03T04:14:12;25;24;
47079;PMS5003;33067;49.296;14.470;2023-04-03T04:16:37;19;19;
47079;PMS5003;33067;49.296;14.470;2023-04-03T04:19:03;22;22;
47079;PMS5003;33067;49.296;14.470;2023-04-03T04:21:28;29;26;
47079;PMS5003;33067;49.296;14.470;2023-04-03T04:23:53;28;24;
47079;PMS5003;33067;49.296;14.470;2023-04-03T04:26:19;19;19;
47079;PMS5003;33067;49.296;14.470;2023-04-03T04:28:44;32;28;
47079;PMS5003;33067;49.296;14.470;2023-04-03T04:31:09;21;20;
47079;PMS5003;33067;49.296;14.470;2023-04-03T04:33:34;12;12;
47079;PMS5003;33067;49.296;14.470;2023-04-03T04:36:00;14;11;
47079;PMS5003;33067;49.296;14.470;2023-04-03T04:38:26;12;12;
47079;PMS5003;33067;49.296;14.470;2023-04-03T04:40:51;9;9;
47079;PMS5003;33067;49.296;14.470;2023-04-03T04:43:17;11;11;
47079;PMS5003;33067;49.296;14.470;2023-04-03T04:45:42;7;7;
47079;PMS5003;33067;49.296;14.470;2023-04-03T04:48:08;10;7;
47079;PMS5003;33067;49.296;14.470;2023-04-03T04:50:34;7;7;
47079;PMS5003;33067;49.296;14.470;2023-04-03T04:52:59;9;9;
47079;PMS5003;33067;49.296;14.470;2023-04-03T04:55:25;11;9;
47079;PMS5003;33067;49.296;14.470;2023-04-03T04:57:51;12;12;
47079;PMS5003;33067;49.296;14.470;2023-04-03T05:00:16;10;9;
47079;PMS5003;33067;49.296;14.470;2023-04-03T05:02:42;10;10;
47079;PMS5003;33067;49.296;14.470;2023-04-03T05:05:08;12;12;
47079;PMS5003;33067;49.296;14.470;2023-04-03T05:07:33;12;11;
47079;PMS5003;33067;49.296;14.470;2023-04-03T05:09:59;10;10;
47079;PMS5003;33067;49.296;14.470;2023-04-03T05:12:24;12;11;
47079;PMS5003;33067;49.296;14.470;2023-04-03T05:14:50;12;12;
47079;PMS5003;33067;49.296;14.470;2023-04-03T05:17:15;11;11;
47079;PMS5003;33067;49.296;14.470;2023-04-03T05:19:41;12;12;
47079;PMS5003;33067;49.296;14.470;2023-04-03T05:22:07;14;13;
47079;PMS5003;33067;49.296;14.470;2023-04-03T05:24:32;15;12;
47079;PMS5003;33067;49.296;14.470;2023-04-03T05:26:58;13;11;
47079;PMS5003;33067;49.296;14.470;2023-04-03T05:29:23;13;11;
47079;PMS5003;33067;49.296;14.470;2023-04-03T05:31:49;11;11;
47079;PMS5003;33067;49.296;14.470;2023-04-03T05:34:15;11;11;
47079;PMS5003;33067;49.296;14.470;2023-04-03T05:36:41;15;15;
47079;PMS5003;33067;49.296;14.470;2023-04-03T05:39:06;16;12;
47079;PMS5003;33067;49.296;14.470;2023-04-03T05:41:32;11;10;
47079;PMS5003;33067;49.296;14.470;2023-04-03T05:43:57;32;27;
47079;PMS5003;33067;49.296;14.470;2023-04-03T05:46:22;12;12;
47079;PMS5003;33067;49.296;14.470;2023-04-03T05:48:48;9;9;
47079;PMS5003;33067;49.296;14.470;2023-04-03T05:51:15;11;11;
47079;PMS5003;33067;49.296;14.470;2023-04-03T05:53:39;12;9;
47079;PMS5003;33067;49.296;14.470;2023-04-03T05:56:05;10;9;
47079;PMS5003;33067;49.296;14.470;2023-04-03T05:58:31;9;7;
47079;PMS5003;33067;49.296;14.470;2023-04-03T06:00:56;11;11;
47079;PMS5003;33067;49.296;14.470;2023-04-03T06:03:22;9;9;
47079;PMS5003;33067;49.296;14.470;2023-04-03T06:05:47;11;11;
47079;PMS5003;33067;49.296;14.470;2023-04-03T06:08:13;11;9;
47079;PMS5003;33067;49.296;14.470;2023-04-03T06:10:39;9;6;
47079;PMS5003;33067;49.296;14.470;2023-04-03T06:13:04;13;11;
47079;PMS5003;33067;49.296;14.470;2023-04-03T06:15:30;10;9;
47079;PMS5003;33067;49.296;14.470;2023-04-03T06:17:55;6;6;
47079;PMS5003;33067;49.296;14.470;2023-04-03T06:20:21;9;9;
47079;PMS5003;33067;49.296;14.470;2023-04-03T06:22:47;9;9;
47079;PMS5003;33067;49.296;14.470;2023-04-03T06:25:12;11;10;
47079;PMS5003;33067;49.296;14.470;2023-04-03T06:27:38;13;11;
47079;PMS5003;33067;49.296;14.470;2023-04-03T06:30:03;14;11;
47079;PMS5003;33067;49.296;14.470;2023-04-03T06:32:28;13;13;
47079;PMS5003;33067;49.296;14.470;2023-04-03T06:34:54;9;9;
47079;PMS5003;33067;49.296;14.470;2023-04-03T06:37:20;10;10;
47079;PMS5003;33067;49.296;14.470;2023-04-03T06:39:45;11;11;
47079;PMS5003;33067;49.296;14.470;2023-04-03T06:42:10;10;10;
47079;PMS5003;33067;49.296;14.470;2023-04-03T06:44:36;9;9;
47079;PMS5003;33067;49.296;14.470;2023-04-03T06:47:01;11;10;
47079;PMS5003;33067;49.296;14.470;2023-04-03T06:49:26;12;12;
47079;PMS5003;33067;49.296;14.470;2023-04-03T06:51:52;10;9;
47079;PMS5003;33067;49.296;14.470;2023-04-03T06:54:18;10;10;
47079;PMS5003;33067;49.296;14.470;2023-04-03T06:56:44;9;9;
47079;PMS5003;33067;49.296;14.470;2023-04-03T06:59:10;7;7;
47079;PMS5003;33067;49.296;14.470;2023-04-03T07:01:35;11;10;
47079;PMS5003;33067;49.296;14.470;2023-04-03T07:04:01;9;9;
47079;PMS5003;33067;49.296;14.470;2023-04-03T07:06:27;14;13;
47079;PMS5003;33067;49.296;14.470;2023-04-03T07:08:52;13;10;
47079;PMS5003;33067;49.296;14.470;2023-04-03T07:11:18;11;11;
47079;PMS5003;33067;49.296;14.470;2023-04-03T07:13:44;10;10;
47079;PMS5003;33067;49.296;14.470;2023-04-03T07:16:09;14;13;
47079;PMS5003;33067;49.296;14.470;2023-04-03T07:18:35;14;11;
47079;PMS5003;33067;49.296;14.470;2023-04-03T07:21:01;18;11;
47079;PMS5003;33067;49.296;14.470;2023-04-03T07:23:26;11;10;
47079;PMS5003;33067;49.296;14.470;2023-04-03T07:25:52;19;14;
47079;PMS5003;33067;49.296;14.470;2023-04-03T07:28:19;19;18;
47079;PMS5003;33067;49.296;14.470;2023-04-03T07:30:43;11;11;
47079;PMS5003;33067;49.296;14.470;2023-04-03T07:33:09;13;10;
47079;PMS5003;33067;49.296;14.470;2023-04-03T07:35:35;11;9;
47079;PMS5003;33067;49.296;14.470;2023-04-03T07:38:00;14;14;
47079;PMS5003;33067;49.296;14.470;2023-04-03T07:40:26;13;10;
47079;PMS5003;33067;49.296;14.470;2023-04-03T07:42:51;11;11;
47079;PMS5003;33067;49.296;14.470;2023-04-03T07:45:17;13;13;
47079;PMS5003;33067;49.296;14.470;2023-04-03T07:47:43;13;10;
47079;PMS5003;33067;49.296;14.470;2023-04-03T07:50:08;17;15;
47079;PMS5003;33067;49.296;14.470;2023-04-03T07:52:34;11;9;
47079;PMS5003;33067;49.296;14.470;2023-04-03T07:54:59;17;15;
47079;PMS5003;33067;49.296;14.470;2023-04-03T07:57:25;11;11;
47079;PMS5003;33067;49.296;14.470;2023-04-03T07:59:50;13;10;
47079;PMS5003;33067;49.296;14.470;2023-04-03T08:02:16;11;11;
47079;PMS5003;33067;49.296;14.470;2023-04-03T08:04:42;15;13;
47079;PMS5003;33067;49.296;14.470;2023-04-03T08:07:07;15;11;
47079;PMS5003;33067;49.296;14.470;2023-04-03T08:09:33;15;11;
47079;PMS5003;33067;49.296;14.470;2023-04-03T08:11:59;11;11;
47079;PMS5003;33067;49.296;14.470;2023-04-03T08:14:24;13;13;
47079;PMS5003;33067;49.296;14.470;2023-04-03T08:16:49;14;14;
47079;PMS5003;33067;49.296;14.470;2023-04-03T08:19:15;14;11;
47079;PMS5003;33067;49.296;14.470;2023-04-03T08:21:40;15;15;
47079;PMS5003;33067;49.296;14.470;2023-04-03T08:24:05;15;15;
47079;PMS5003;33067;49.296;14.470;2023-04-03T08:26:30;22;19;
47079;PMS5003;33067;49.296;14.470;2023-04-03T08:28:56;16;15;
47079;PMS5003;33067;49.296;14.470;2023-04-03T08:31:22;14;14;
47079;PMS5003;33067;49.296;14.470;2023-04-03T08:33:47;18;15;
47079;PMS5003;33067;49.296;14.470;2023-04-03T08:36:17;16;16;
47079;PMS5003;33067;49.296;14.470;2023-04-03T08:38:38;16;16;
47079;PMS5003;33067;49.296;14.470;2023-04-03T08:41:04;19;19;
47079;PMS5003;33067;49.296;14.470;2023-04-03T08:43:31;15;15;
47079;PMS5003;33067;49.296;14.470;2023-04-03T08:45:55;15;15;
47079;PMS5003;33067;49.296;14.470;2023-04-03T08:48:21;15;14;
47079;PMS5003;33067;49.296;14.470;2023-04-03T08:50:47;14;11;
47079;PMS5003;33067;49.296;14.470;2023-04-03T08:53:12;15;15;
47079;PMS5003;33067;49.296;14.470;2023-04-03T08:55:37;14;14;
47079;PMS5003;33067;49.296;14.470;2023-04-03T08:58:03;24;20;
47079;PMS5003;33067;49.296;14.470;2023-04-03T09:00:29;15;15;
47079;PMS5003;33067;49.296;14.470;2023-04-03T09:02:53;15;15;
47079;PMS5003;33067;49.296;14.470;2023-04-03T09:05:19;15;15;
47079;PMS5003;33067;49.296;14.470;2023-04-03T09:07:44;18;15;
47079;PMS5003;33067;49.296;14.470;2023-04-03T09:10:09;15;13;
47079;PMS5003;33067;49.296;14.470;2023-04-03T09:12:37;19;15;
47079;PMS5003;33067;49.296;14.470;2023-04-03T09:15:02;19;19;
47079;PMS5003;33067;49.296;14.470;2023-04-03T09:17:31;16;16;
47079;PMS5003;33067;49.296;14.470;2023-04-03T09:19:53;19;17;
47079;PMS5003;33067;49.296;14.470;2023-04-03T09:22:20;15;14;
47079;PMS5003;33067;49.296;14.470;2023-04-03T09:24:43;12;12;
47079;PMS5003;33067;49.296;14.470;2023-04-03T09:27:10;14;14;
47079;PMS5003;33067;49.296;14.470;2023-04-03T09:29:34;19;16;
47079;PMS5003;33067;49.296;14.470;2023-04-03T09:32:00;16;11;
47079;PMS5003;33067;49.296;14.470;2023-04-03T09:34:26;18;15;
47079;PMS5003;33067;49.296;14.470;2023-04-03T09:36:51;14;12;
47079;PMS5003;33067;49.296;14.470;2023-04-03T09:39:17;18;14;
47079;PMS5003;33067;49.296;14.470;2023-04-03T09:41:42;12;12;
47079;PMS5003;33067;49.296;14.470;2023-04-03T09:46:33;14;14;
47079;PMS5003;33067;49.296;14.470;2023-04-03T09:48:59;19;16;
47079;PMS5003;33067;49.296;14.470;2023-04-03T09:51:25;19;17;
47079;PMS5003;33067;49.296;14.470;2023-04-03T09:53:50;15;14;
47079;PMS5003;33067;49.296;14.470;2023-04-03T09:56:19;15;11;
47079;PMS5003;33067;49.296;14.470;2023-04-03T09:58:40;18;14;
47079;PMS5003;33067;49.296;14.470;2023-04-03T10:01:06;15;12;
47079;PMS5003;33067;49.296;14.470;2023-04-03T10:03:32;14;14;
47079;PMS5003;33067;49.296;14.470;2023-04-03T10:05:57;26;25;
47079;PMS5003;33067;49.296;14.470;2023-04-03T10:08:23;23;19;
47079;PMS5003;33067;49.296;14.470;2023-04-03T10:10:48;30;26;
47079;PMS5003;33067;49.296;14.470;2023-04-03T10:13:14;14;14;
47079;PMS5003;33067;49.296;14.470;2023-04-03T10:15:40;14;14;
47079;PMS5003;33067;49.296;14.470;2023-04-03T10:18:06;14;14;
47079;PMS5003;33067;49.296;14.470;2023-04-03T10:20:33;12;12;
47079;PMS5003;33067;49.296;14.470;2023-04-03T10:23:00;14;12;
47079;PMS5003;33067;49.296;14.470;2023-04-03T10:25:24;16;15;
47079;PMS5003;33067;49.296;14.470;2023-04-03T10:27:49;23;22;
47079;PMS5003;33067;49.296;14.470;2023-04-03T10:30:19;19;18;
47079;PMS5003;33067;49.296;14.470;2023-04-03T10:32:43;20;16;
47079;PMS5003;33067;49.296;14.470;2023-04-03T10:35:08;15;15;
47079;PMS5003;33067;49.296;14.470;2023-04-03T10:37:30;19;18;
47079;PMS5003;33067;49.296;14.470;2023-04-03T10:39:56;14;14;
47079;PMS5003;33067;49.296;14.470;2023-04-03T10:42:22;16;14;
47079;PMS5003;33067;49.296;14.470;2023-04-03T10:44:53;14;12;
47079;PMS5003;33067;49.296;14.470;2023-04-03T10:47:12;14;14;
47079;PMS5003;33067;49.296;14.470;2023-04-03T10:49:40;11;11;
47079;PMS5003;33067;49.296;14.470;2023-04-03T10:52:05;14;11;
47079;PMS5003;33067;49.296;14.470;2023-04-03T10:54:29;22;22;
47079;PMS5003;33067;49.296;14.470;2023-04-03T10:56:53;16;16;
47079;PMS5003;33067;49.296;14.470;2023-04-03T10:59:21;16;15;
47079;PMS5003;33067;49.296;14.470;2023-04-03T11:01:45;20;19;
47079;PMS5003;33067;49.296;14.470;2023-04-03T11:04:09;12;11;
47079;PMS5003;33067;49.296;14.470;2023-04-03T11:06:36;12;12;
47079;PMS5003;33067;49.296;14.470;2023-04-03T11:09:01;20;19;
47079;PMS5003;33067;49.296;14.470;2023-04-03T11:11:26;19;15;
47079;PMS5003;33067;49.296;14.470;2023-04-03T11:13:52;14;14;
47079;PMS5003;33067;49.296;14.470;2023-04-03T11:16:19;19;15;
47079;PMS5003;33067;49.296;14.470;2023-04-03T11:18:44;15;14;
47079;PMS5003;33067;49.296;14.470;2023-04-03T11:21:09;15;14;
47079;PMS5003;33067;49.296;14.470;2023-04-03T11:23:34;16;15;
47079;PMS5003;33067;49.296;14.470;2023-04-03T11:26:01;21;16;
47079;PMS5003;33067;49.296;14.470;2023-04-03T11:28:25;10;10;
47079;PMS5003;33067;49.296;14.470;2023-04-03T11:30:52;16;14;
47079;PMS5003;33067;49.296;14.470;2023-04-03T11:33:21;19;14;
47079;PMS5003;33067;49.296;14.470;2023-04-03T11:35:43;15;12;
47079;PMS5003;33067;49.296;14.470;2023-04-03T11:38:13;15;12;
47079;PMS5003;33067;49.296;14.470;2023-04-03T11:40:33;14;12;
47079;PMS5003;33067;49.296;14.470;2023-04-03T11:43:03;14;12;
47079;PMS5003;33067;49.296;14.470;2023-04-03T11:45:27;15;15;
47079;PMS5003;33067;49.296;14.470;2023-04-03T11:47:50;14;12;
47079;PMS5003;33067;49.296;14.470;2023-04-03T11:59:57;12;11;
47079;PMS5003;33067;49.296;14.470;2023-04-03T12:02:36;13;13;
47079;PMS5003;33067;49.296;14.470;2023-04-03T12:07:15;13;13;
47079;PMS5003;33067;49.296;14.470;2023-04-03T12:14:31;11;11;
47079;PMS5003;33067;49.296;14.470;2023-04-03T12:16:56;11;11;
47079;PMS5003;33067;49.296;14.470;2023-04-03T12:26:40;12;12;
47079;PMS5003;33067;49.296;14.470;2023-04-03T12:29:10;13;11;
47079;PMS5003;33067;49.296;14.470;2023-04-03T12:31:37;13;12;
47079;PMS5003;33067;49.296;14.470;2023-04-03T12:34:00;12;10;
47079;PMS5003;33067;49.296;14.470;2023-04-03T12:36:22;16;15;
47079;PMS5003;33067;49.296;14.470;2023-04-03T12:38:51;15;12;
47079;PMS5003;33067;49.296;14.470;2023-04-03T12:41:17;15;13;
47079;PMS5003;33067;49.296;14.470;2023-04-03T12:43:41;16;16;
47079;PMS5003;33067;49.296;14.470;2023-04-03T12:46:02;16;15;
47079;PMS5003;33067;49.296;14.470;2023-04-03T12:48:28;11;11;
47079;PMS5003;33067;49.296;14.470;2023-04-03T12:50:53;18;16;
47079;PMS5003;33067;49.296;14.470;2023-04-03T12:53:19;10;10;
47079;PMS5003;33067;49.296;14.470;2023-04-03T12:55:44;12;12;
47079;PMS5003;33067;49.296;14.470;2023-04-03T12:58:14;8;8;
47079;PMS5003;33067;49.296;14.470;2023-04-03T13:00:35;12;10;
47079;PMS5003;33067;49.296;14.470;2023-04-03T13:03:01;12;10;
47079;PMS5003;33067;49.296;14.470;2023-04-03T13:05:26;10;10;
47079;PMS5003;33067;49.296;14.470;2023-04-03T13:07:52;15;13;
47079;PMS5003;33067;49.296;14.470;2023-04-03T13:10:17;11;10;
47079;PMS5003;33067;49.296;14.470;2023-04-03T13:12:45;18;17;
47079;PMS5003;33067;49.296;14.470;2023-04-03T13:15:13;11;11;
47079;PMS5003;33067;49.296;14.470;2023-04-03T13:17:33;9;9;
47079;PMS5003;33067;49.296;14.470;2023-04-03T13:22:27;11;11;
47079;PMS5003;33067;49.296;14.470;2023-04-03T13:24:50;8;8;
47079;PMS5003;33067;49.296;14.470;2023-04-03T13:27:16;7;7;
47079;PMS5003;33067;49.296;14.470;2023-04-03T13:29:41;9;9;
47079;PMS5003;33067;49.296;14.470;2023-04-03T13:32:07;12;11;
47079;PMS5003;33067;49.296;14.470;2023-04-03T13:34:35;13;8;
47079;PMS5003;33067;49.296;14.470;2023-04-03T13:36:59;8;6;
47079;PMS5003;33067;49.296;14.470;2023-04-03T13:39:24;11;10;
47079;PMS5003;33067;49.296;14.470;2023-04-03T13:41:50;10;10;
47079;PMS5003;33067;49.296;14.470;2023-04-03T13:44:15;11;11;
47079;PMS5003;33067;49.296;14.470;2023-04-03T13:46:40;16;11;
47079;PMS5003;33067;49.296;14.470;2023-04-03T13:51:31;11;8;
47079;PMS5003;33067;49.296;14.470;2023-04-03T13:53:57;8;6;
47079;PMS5003;33067;49.296;14.470;2023-04-03T13:56:25;8;7;
47079;PMS5003;33067;49.296;14.470;2023-04-03T14:01:16;11;9;
47079;PMS5003;33067;49.296;14.470;2023-04-03T14:03:42;9;9;
47079;PMS5003;33067;49.296;14.470;2023-04-03T14:06:05;11;11;
47079;PMS5003;33067;49.296;14.470;2023-04-03T14:08:30;10;10;
47079;PMS5003;33067;49.296;14.470;2023-04-03T14:10:55;11;9;
47079;PMS5003;33067;49.296;14.470;2023-04-03T14:13:21;10;7;
47079;PMS5003;33067;49.296;14.470;2023-04-03T14:15:47;8;8;
47079;PMS5003;33067;49.296;14.470;2023-04-03T14:18:13;6;6;
47079;PMS5003;33067;49.296;14.470;2023-04-03T14:20:38;15;11;
47079;PMS5003;33067;49.296;14.470;2023-04-03T14:23:03;20;15;
47079;PMS5003;33067;49.296;14.470;2023-04-03T14:25:29;13;13;
47079;PMS5003;33067;49.296;14.470;2023-04-03T14:27:54;17;16;
47079;PMS5003;33067;49.296;14.470;2023-04-03T14:30:20;8;8;
47079;PMS5003;33067;49.296;14.470;2023-04-03T14:32:46;12;12;
47079;PMS5003;33067;49.296;14.470;2023-04-03T14:35:10;13;10;
47079;PMS5003;33067;49.296;14.470;2023-04-03T14:37:36;13;12;
47079;PMS5003;33067;49.296;14.470;2023-04-03T14:40:02;16;12;
47079;PMS5003;33067;49.296;14.470;2023-04-03T14:42:28;13;12;
47079;PMS5003;33067;49.296;14.470;2023-04-03T14:44:52;10;8;
47079;PMS5003;33067;49.296;14.470;2023-04-03T14:47:19;7;7;
47079;PMS5003;33067;49.296;14.470;2023-04-03T14:49:43;7;7;
47079;PMS5003;33067;49.296;14.470;2023-04-03T14:52:11;11;10;
47079;PMS5003;33067;49.296;14.470;2023-04-03T14:54:34;7;7;
47079;PMS5003;33067;49.296;14.470;2023-04-03T14:57:00;12;8;
47079;PMS5003;33067;49.296;14.470;2023-04-03T14:59:26;11;11;
47079;PMS5003;33067;49.296;14.470;2023-04-03T15:01:51;13;11;
47079;PMS5003;33067;49.296;14.470;2023-04-03T15:04:18;10;8;
47079;PMS5003;33067;49.296;14.470;2023-04-03T15:06:42;8;7;
47079;PMS5003;33067;49.296;14.470;2023-04-03T15:09:11;10;10;
47079;PMS5003;33067;49.296;14.470;2023-04-03T15:11:33;10;10;
47079;PMS5003;33067;49.296;14.470;2023-04-03T15:13:59;13;13;
47079;PMS5003;33067;49.296;14.470;2023-04-03T15:16:24;12;11;
47079;PMS5003;33067;49.296;14.470;2023-04-03T15:18:50;11;11;
47079;PMS5003;33067;49.296;14.470;2023-04-03T15:21:17;8;8;
47079;PMS5003;33067;49.296;14.470;2023-04-03T15:26:08;10;10;
47079;PMS5003;33067;49.296;14.470;2023-04-03T15:28:32;13;10;
47079;PMS5003;33067;49.296;14.470;2023-04-03T15:30:58;12;8;
47079;PMS5003;33067;49.296;14.470;2023-04-03T15:33:23;8;8;
47079;PMS5003;33067;49.296;14.470;2023-04-03T15:35:49;8;8;
47079;PMS5003;33067;49.296;14.470;2023-04-03T15:38:14;12;10;
47079;PMS5003;33067;49.296;14.470;2023-04-03T15:40:40;13;12;
47079;PMS5003;33067;49.296;14.470;2023-04-03T15:43:06;13;13;
47079;PMS5003;33067;49.296;14.470;2023-04-03T15:45:31;17;13;
47079;PMS5003;33067;49.296;14.470;2023-04-03T15:47:57;16;15;
47079;PMS5003;33067;49.296;14.470;2023-04-03T15:50:22;11;11;
47079;PMS5003;33067;49.296;14.470;2023-04-03T15:52:48;16;12;
47079;PMS5003;33067;49.296;14.470;2023-04-03T15:55:15;11;11;
47079;PMS5003;33067;49.296;14.470;2023-04-03T15:57:39;11;10;
47079;PMS5003;33067;49.296;14.470;2023-04-03T16:00:05;17;17;
47079;PMS5003;33067;49.296;14.470;2023-04-03T16:02:29;21;20;
47079;PMS5003;33067;49.296;14.470;2023-04-03T16:04:54;24;20;
47079;PMS5003;33067;49.296;14.470;2023-04-03T16:07:20;17;15;
47079;PMS5003;33067;49.296;14.470;2023-04-03T16:09:45;11;10;
47079;PMS5003;33067;49.296;14.470;2023-04-03T16:12:11;16;14;
47079;PMS5003;33067;49.296;14.470;2023-04-03T16:14:36;12;12;
47079;PMS5003;33067;49.296;14.470;2023-04-03T16:17:02;16;15;
47079;PMS5003;33067;49.296;14.470;2023-04-03T16:19:28;16;16;
47079;PMS5003;33067;49.296;14.470;2023-04-03T16:21:54;16;12;
47079;PMS5003;33067;49.296;14.470;2023-04-03T16:24:23;11;11;
47079;PMS5003;33067;49.296;14.470;2023-04-03T16:26:45;10;8;
47079;PMS5003;33067;49.296;14.470;2023-04-03T16:29:10;27;25;
47079;PMS5003;33067;49.296;14.470;2023-04-03T16:31:36;11;11;
47079;PMS5003;33067;49.296;14.470;2023-04-03T16:34:02;13;13;